Latest Weather Observations for Kanagulk

IDV60801

Issued at 12:35 pm EST Thursday 24 July 2014 (issued every 30 minutes, with the page automatically refreshed every 10 minutes)

About weather observations | Map of weather stations | Latest weather observations for VIC | Other Formats
Station Details ID: 079097 Name: KANAGULK Lat: -37.12 Lon: 141.80 Height: 188.8 m
Data from the previous 72 hours. | See also: Recent months at Kanagulk
Date/Time
EST
Temp
°C
App
Temp
°C
Dew
Point
Rel
Hum
%
Delta-T
°C
Wind Press
QNH
hPa
Press
MSL
hPa
Rain
since 9 am
mm
Dir
 
Spd
km/h
Gust
km/h
Spd
kts
Gust
kts
24/12:30pm 11.9 4.6 8.7 81 1.6 NNE 37 50 20 27 1009.5 - 0.0
24/12:00pm 11.7 4.8 8.9 83 1.4 NE 35 44 19 24 1009.9 1010.2 0.0
24/11:30am 11.7 4.9 9.4 86 1.2 NE 35 44 19 24 1010.6 - 0.0
24/11:00am 10.8 4.6 9.2 90 0.8 NE 32 43 17 23 1010.9 1011.2 0.0
24/10:30am 10.6 4.4 9.4 92 0.6 NE 32 52 17 28 1011.1 - 0.0
24/10:28am 10.6 4.8 9.5 93 0.6 NE 30 52 16 28 1011.2 - 0.0
24/10:00am 9.6 4.2 9.5 99 0.1 NE 28 39 15 21 1011.4 1011.7 0.0
24/09:30am 9.2 3.7 9.1 99 0.0 NE 28 41 15 22 1011.4 - 0.0
24/09:00am 8.8 3.2 8.7 99 0.0 ENE 28 35 15 19 1011.5 1011.8 4.4
24/08:30am 8.3 2.9 8.2 99 0.0 ENE 26 32 14 17 1011.5 - 4.4
24/08:00am 8.1 3.5 8.0 99 0.0 ENE 22 30 12 16 1011.7 1012.0 4.4
24/07:30am 8.0 3.3 7.9 99 0.0 ENE 22 30 12 16 1012.0 - 4.4
24/07:00am 7.9 2.8 7.8 99 0.0 NE 24 30 13 16 1012.1 1012.4 4.0
24/06:30am 7.9 2.8 7.8 99 0.0 NE 24 35 13 19 1012.2 - 3.6
24/06:00am 7.9 2.8 7.8 99 0.0 NE 24 35 13 19 1012.3 1012.6 3.2
24/05:30am 7.7 2.2 7.6 99 0.0 NE 26 33 14 18 1012.6 - 2.8
24/05:00am 7.6 3.2 7.5 99 0.0 NE 20 26 11 14 1012.7 1013.1 2.4
24/04:30am 7.6 3.4 7.5 99 0.0 NE 19 24 10 13 1013.0 - 2.0
24/04:00am 7.5 3.1 7.4 99 0.0 NE 20 24 11 13 1013.4 1013.7 1.8
24/03:30am 7.6 3.2 7.5 99 0.0 NE 20 28 11 15 1013.7 - 1.6
24/03:00am 7.8 3.4 7.2 96 0.3 NNE 20 26 11 14 1014.2 1014.5 1.0
24/02:30am 8.3 3.0 6.9 91 0.7 NNE 24 33 13 18 1014.5 - 0.6
24/02:00am 8.2 3.7 6.8 91 0.7 NE 20 26 11 14 1014.4 1014.7 0.2
24/01:30am 8.4 3.3 6.2 86 1.0 NE 22 32 12 17 1014.6 - 0.0
24/01:00am 8.7 3.6 6.0 83 1.2 NE 22 30 12 16 1015.0 1015.3 0.0
24/12:30am 8.6 3.1 5.7 82 1.3 NNE 24 35 13 19 1015.1 - 0.0
24/12:00am 8.4 3.2 5.3 81 1.4 NE 22 28 12 15 1015.1 1015.4 0.0
 
Date/Time
EST
Temp
°C
App
Temp
°C
Dew
Point
Rel
Hum
%
Delta-T
°C
Wind Press
QNH
hPa
Press
MSL
hPa
Rain
since 9 am
mm
Dir
 
Spd
km/h
Gust
km/h
Spd
kts
Gust
kts
23/11:30pm 8.1 3.2 5.0 81 1.4 NE 20 26 11 14 1015.4 - 0.0
23/11:00pm 8.1 3.2 5.0 81 1.4 NE 20 26 11 14 1015.5 1015.8 0.0
23/10:30pm 8.4 2.7 5.0 79 1.5 NE 24 32 13 17 1015.8 - 0.0
23/10:00pm 8.3 3.0 5.1 80 1.4 NE 22 26 12 14 1016.1 1016.4 0.0
23/09:30pm 7.9 3.0 5.0 82 1.3 NE 20 26 11 14 1016.4 - 0.0
23/09:00pm 7.8 3.1 5.3 84 1.1 NE 19 26 10 14 1016.7 1017.0 0.0
23/08:30pm 7.8 3.6 5.6 86 1.0 NE 17 24 9 13 1017.1 - 0.0
23/08:00pm 7.8 3.5 5.4 85 1.1 NE 17 22 9 12 1017.3 1017.7 0.0
23/07:30pm 7.8 3.1 5.3 84 1.1 NE 19 20 10 11 1017.4 - 0.0
23/07:00pm 7.7 3.4 5.3 85 1.1 NE 17 20 9 11 1017.4 1017.8 0.0
23/06:30pm 7.4 4.2 5.0 85 1.1 ENE 11 13 6 7 1017.2 - 0.0
23/06:00pm 7.9 4.3 5.2 83 1.2 ENE 13 17 7 9 1017.3 1017.7 0.0
23/05:30pm 8.2 4.2 5.0 80 1.4 NE 15 20 8 11 1017.6 - 0.0
23/05:00pm 8.7 3.4 5.1 78 1.6 NNE 22 30 12 16 1017.8 1018.2 0.0
23/04:30pm 9.5 3.8 5.1 74 2.0 NNE 24 30 13 16 1017.7 - 0.0
23/04:00pm 9.6 4.0 5.6 76 1.8 NNE 24 30 13 16 1017.8 1018.2 0.0
23/03:30pm 10.3 4.9 6.5 77 1.8 NE 24 32 13 17 1017.8 - 0.0
23/03:00pm 9.1 4.5 6.5 84 1.2 NNE 20 28 11 15 1018.1 1018.5 0.0
23/02:30pm 8.5 3.4 6.0 84 1.2 NNE 22 32 12 17 1018.4 - 0.0
23/02:00pm 8.4 3.8 6.5 88 0.9 NNE 20 26 11 14 1018.9 1019.2 0.0
23/01:30pm 8.1 3.0 6.2 88 0.9 NE 22 30 12 16 1019.3 - 0.0
23/01:00pm 7.6 2.2 6.2 91 0.6 NNE 24 32 13 17 1019.8 1020.1 0.0
23/12:30pm 7.3 2.4 7.0 98 0.1 NNE 22 30 12 16 1020.3 - 0.0
23/12:00pm 7.4 2.2 7.3 99 0.0 NNE 24 30 13 16 1020.6 1020.9 0.0
23/11:30am 6.9 1.6 6.9 100 0.0 NNE 24 32 13 17 1021.1 - 0.0
23/11:00am 6.2 1.7 6.2 100 0.0 NNE 19 24 10 13 1021.5 1021.9 0.0
23/10:30am 4.9 1.3 4.9 100 0.0 NE 13 17 7 9 1021.9 - 0.0
23/10:00am 2.6 -0.7 2.5 99 0.0 NE 9 15 5 8 1022.3 1022.7 0.0
23/09:30am 1.3 -0.5 1.2 99 0.0 CALM 0 6 0 3 1022.7 - 0.0
23/09:00am 0.2 -1.8 0.1 99 0.0 CALM 0 0 0 0 1022.7 1023.1 0.2
23/08:30am -0.1 -2.1 -0.2 99 0.0 CALM 0 0 0 0 1022.5 - 0.2
23/08:00am -0.9 -3.0 -1.0 99 0.0 CALM 0 0 0 0 1022.5 1022.9 0.2
23/07:30am -0.7 -2.8 -0.8 99 0.0 CALM 0 0 0 0 1022.5 - 0.2
23/07:00am -0.6 -2.7 -0.7 99 0.0 CALM 0 0 0 0 1022.4 1022.8 0.2
23/06:30am -1.0 -3.1 -1.1 99 0.0 CALM 0 0 0 0 1022.1 - 0.2
23/06:00am -1.3 -3.5 -1.4 99 0.0 CALM 0 0 0 0 1022.0 1022.4 0.2
23/05:30am -0.7 -2.8 -0.8 99 0.0 CALM 0 0 0 0 1021.9 - 0.2
23/05:00am -0.5 -2.6 -0.6 99 0.0 CALM 0 0 0 0 1022.1 1022.5 0.2
23/04:30am -0.6 -2.7 -0.7 99 0.0 CALM 0 0 0 0 1022.1 - 0.2
23/04:00am -0.2 -2.2 -0.3 99 0.0 CALM 0 0 0 0 1022.2 1022.6 0.2
23/03:30am 0.6 -1.3 0.5 99 0.0 CALM 0 0 0 0 1022.4 - 0.2
23/03:00am 0.6 -1.3 0.5 99 0.0 CALM 0 0 0 0 1022.6 1023.0 0.2
23/02:30am 1.1 -0.7 1.0 99 0.0 CALM 0 0 0 0 1022.8 - 0.2
23/02:00am 0.6 -1.3 0.5 99 0.0 CALM 0 0 0 0 1022.9 1023.3 0.2
23/01:30am 1.2 -0.6 1.1 99 0.0 CALM 0 0 0 0 1023.0 - 0.2
23/01:00am 0.8 -1.1 0.7 99 0.0 CALM 0 0 0 0 1023.0 1023.4 0.2
23/12:30am 1.3 -0.5 1.2 99 0.0 CALM 0 0 0 0 1023.1 - 0.2
23/12:00am 2.4 0.8 2.3 99 0.0 CALM 0 0 0 0 1023.4 1023.8 0.2
 
Date/Time
EST
Temp
°C
App
Temp
°C
Dew
Point
Rel
Hum
%
Delta-T
°C
Wind Press
QNH
hPa
Press
MSL
hPa
Rain
since 9 am
mm
Dir
 
Spd
km/h
Gust
km/h
Spd
kts
Gust
kts
22/11:30pm 1.9 0.2 1.8 99 0.0 CALM 0 0 0 0 1023.8 - 0.2
22/11:00pm 1.1 -0.7 1.0 99 0.0 CALM 0 0 0 0 1024.1 1024.5 0.2
22/10:30pm 2.3 0.7 2.2 99 0.0 CALM 0 0 0 0 1024.0 - 0.2
22/10:00pm 3.2 1.0 3.1 99 0.0 E 4 7 2 4 1024.1 1024.5 0.2
22/09:30pm 3.0 1.5 2.9 99 0.0 CALM 0 0 0 0 1024.0 - 0.2
22/09:00pm 4.3 3.0 4.2 99 0.0 CALM 0 0 0 0 1024.4 1024.7 0.2
22/08:30pm 4.6 2.6 4.5 99 0.0 N 4 6 2 3 1024.4 - 0.2
22/08:00pm 5.1 3.9 4.7 97 0.2 CALM 0 0 0 0 1023.9 1024.3 0.2
22/07:30pm 5.0 3.7 4.1 94 0.4 CALM 0 0 0 0 1024.0 - 0.2
22/07:00pm 6.1 5.0 4.9 92 0.5 CALM 0 0 0 0 1023.9 1024.3 0.2
22/06:30pm 6.8 5.6 4.8 87 0.9 CALM 0 0 0 0 1023.8 - 0.2
22/06:00pm 8.4 7.3 5.2 80 1.4 CALM 0 0 0 0 1023.6 1024.0 0.2
22/05:30pm 10.1 9.0 5.3 72 2.2 CALM 0 0 0 0 1023.5 - 0.2
22/05:00pm 12.2 11.2 5.4 63 3.2 CALM 0 0 0 0 1023.4 1023.8 0.2
22/04:30pm 12.6 11.7 6.0 64 3.1 CALM 0 0 0 0 1023.5 - 0.2
22/04:00pm 12.4 11.5 6.0 65 3.0 CALM 0 0 0 0 1023.1 1023.5 0.2
22/03:30pm 12.4 11.0 5.6 63 3.2 ENE 2 7 1 4 1023.3 - 0.2
22/03:00pm 12.2 11.3 6.0 66 2.9 CALM 0 0 0 0 1023.5 1023.9 0.2
22/02:30pm 12.0 10.9 7.1 72 2.4 NE 2 7 1 4 1023.7 - 0.2
22/02:00pm 11.8 10.4 8.8 82 1.5 ENE 6 9 3 5 1023.8 1024.2 0.2
22/01:30pm 11.3 10.5 11.1 99 0.1 NNE 6 11 3 6 1024.3 - 0.2
22/01:00pm 8.9 8.3 8.9 100 0.0 NNE 2 9 1 5 1024.8 1025.1 0.2
22/12:30pm 7.9 6.3 7.9 100 0.0 N 6 9 3 5 1025.3 - 0.2
22/12:00pm 6.7 4.8 6.7 100 0.0 NNE 6 9 3 5 1025.7 1026.0 0.2
22/11:30am 4.9 3.4 4.9 100 0.0 NE 2 7 1 4 1026.2 - 0.2
22/11:00am 4.1 2.0 4.1 100 0.0 ENE 4 9 2 5 1026.5 1026.9 0.2
22/10:30am 3.3 1.5 3.2 99 0.0 E 2 6 1 3 1026.8 - 0.2
22/10:00am 2.0 -0.4 1.9 99 0.0 ENE 4 7 2 4 1026.6 1027.0 0.2
22/09:30am 1.3 -1.6 1.2 99 0.0 ENE 6 7 3 4 1026.6 - 0.2
22/09:00am 0.6 -1.7 0.5 99 0.0 E 2 6 1 3 1026.4 1026.8 0.2
22/08:30am 0.0 -2.0 -0.1 99 0.0 CALM 0 0 0 0 1026.3 - 0.0
22/08:00am 0.0 -2.0 -0.1 99 0.0 CALM 0 0 0 0 1026.1 1026.5 0.0
22/07:30am -0.1 -2.1 -0.2 99 0.0 CALM 0 0 0 0 1025.7 - 0.0
22/07:00am -0.2 -2.2 -0.3 99 0.0 CALM 0 0 0 0 1025.5 1025.8 0.0
22/06:30am -0.3 -2.3 -0.4 99 0.0 CALM 0 0 0 0 1025.2 - 0.0
22/06:00am -0.7 -2.8 -0.8 99 0.0 CALM 0 0 0 0 1024.9 1025.2 0.0
22/05:30am -0.5 -2.6 -0.6 99 0.0 CALM 0 0 0 0 1024.7 - 0.0
22/05:00am -1.2 -3.4 -1.3 99 0.0 CALM 0 0 0 0 1024.7 1025.0 0.0
22/04:30am -1.3 -3.5 -1.4 99 0.0 CALM 0 0 0 0 1024.5 - 0.0
22/04:00am -1.6 -3.8 -1.7 99 0.0 CALM 0 0 0 0 1024.3 1024.6 0.0
22/03:30am -1.3 -3.5 -1.4 99 0.0 CALM 0 0 0 0 1024.4 - 0.0
22/03:00am -0.8 -2.9 -0.9 99 0.0 CALM 0 0 0 0 1024.4 1024.7 0.0
22/02:30am -0.6 -3.1 -0.7 99 0.0 ESE 2 6 1 3 1024.5 - 0.0
22/02:00am 0.2 -2.9 0.1 99 0.0 ESE 6 7 3 4 1024.5 1024.8 0.0
22/01:30am -0.2 -2.2 -0.3 99 0.0 CALM 0 0 0 0 1024.6 - 0.0
22/01:00am 0.3 -1.7 0.2 99 0.0 CALM 0 0 0 0 1024.7 1025.0 0.0
22/12:30am 1.0 -1.2 0.9 99 0.0 ESE 2 7 1 4 1024.9 - 0.0
22/12:00am 1.0 -0.8 0.9 99 0.0 CALM 0 0 0 0 1024.8 1025.1 0.0
 
Date/Time
EST
Temp
°C
App
Temp
°C
Dew
Point
Rel
Hum
%
Delta-T
°C
Wind Press
QNH
hPa
Press
MSL
hPa
Rain
since 9 am
mm
Dir
 
Spd
km/h
Gust
km/h
Spd
kts
Gust
kts
21/11:30pm 2.4 0.8 2.3 99 0.0 CALM 0 0 0 0 1024.8 - 0.0
21/11:00pm 1.1 -0.7 1.0 99 0.0 CALM 0 0 0 0 1024.9 1025.2 0.0
21/10:30pm 2.3 -0.5 2.2 99 0.0 NNE 6 6 3 3 1024.6 - 0.0
21/10:00pm 3.9 1.2 3.8 99 0.0 NE 7 7 4 4 1024.8 1025.1 0.0
21/09:30pm 3.9 1.4 3.8 99 0.0 ENE 6 7 3 4 1024.8 - 0.0
21/09:00pm 4.4 1.8 4.3 99 0.0 ENE 7 9 4 5 1024.8 1025.1 0.0
21/08:30pm 4.0 2.7 3.9 99 0.0 CALM 0 0 0 0 1024.8 - 0.0
21/08:00pm 4.2 2.8 3.8 97 0.2 CALM 0 0 0 0 1024.6 1024.9 0.0
21/07:30pm 5.4 3.1 4.8 96 0.3 E 6 7 3 4 1024.3 - 0.0
21/07:00pm 5.7 3.2 4.8 94 0.4 ENE 7 9 4 5 1024.1 1024.5 0.0
21/06:30pm 6.2 3.4 5.0 92 0.5 ENE 9 11 5 6 1023.7 - 0.0
21/06:00pm 7.4 5.1 5.5 88 0.9 ENE 7 9 4 5 1023.5 1023.9 0.0
21/05:30pm 8.4 5.7 5.7 83 1.2 ENE 9 11 5 6 1023.4 - 0.0
21/05:00pm 9.7 6.8 6.6 81 1.5 NE 11 15 6 8 1023.4 1023.8 0.0
21/04:30pm 9.8 6.9 6.5 80 1.6 ENE 11 13 6 7 1023.3 - 0.0
21/04:00pm 10.1 6.9 6.8 80 1.6 NE 13 17 7 9 1023.4 1023.8 0.0
21/03:30pm 10.3 6.5 5.9 74 2.1 NNE 15 19 8 10 1023.3 - 0.0
21/03:00pm 10.8 7.2 6.6 75 2.0 N 15 20 8 11 1023.2 1023.6 0.0
21/02:30pm 10.4 6.8 6.9 79 1.7 N 15 20 8 11 1023.4 - 0.0
21/02:00pm 9.9 6.5 7.5 85 1.2 NE 15 20 8 11 1023.6 1024.0 0.0
21/01:30pm 9.1 5.2 7.1 87 0.9 NNE 17 20 9 11 1023.8 - 0.0
21/01:00pm 9.4 5.2 7.3 87 1.0 NNE 19 26 10 14 1024.1 1024.5 0.0

Other Formats:

Comma delimited format used in spreadsheet applications
http://www.bom.gov.au/fwo/IDV60801/IDV60801.95827.axf

JavaScript Object Notation format (JSON) in row-major order
http://www.bom.gov.au/fwo/IDV60801/IDV60801.95827.json